Time;durP1;ratioP1;P1;durP2;ratioP2;P2;SDS_P1;SDS_P2;PMS_P1;PMS_P2;Temp;Humidity;BMP_temperature;BMP_pressure;BME280_temperature;BME280_humidity;BME280_pressure;Samples;Min_cycle;Max_cycle;Signal;HPM_P1;HPM_P2
2023/07/07 00:00:16;;;;;;;17.03;12.40;;;22.50;99.90;;;;;;5072601;28;20469;-75
2023/07/07 00:02:42;;;;;;;18.85;13.07;;;22.40;99.90;;;;;;5058389;28;20505;-75
2023/07/07 00:05:09;;;;;;;17.20;12.30;;;22.50;99.90;;;;;;5072505;28;20797;-74
2023/07/07 00:07:38;;;;;;;19.77;12.52;;;22.50;99.90;;;;;;5079935;28;20418;-76
2023/07/07 00:10:06;;;;;;;19.10;13.15;;;22.50;99.90;;;;;;5058968;28;20411;-76
2023/07/07 00:12:32;;;;;;;19.30;13.40;;;22.60;99.90;;;;;;5095972;28;20441;-76
2023/07/07 00:14:58;;;;;;;21.58;13.27;;;22.50;99.90;;;;;;5069843;28;20437;-77
2023/07/07 00:17:24;;;;;;;16.58;13.07;;;22.50;99.90;;;;;;5077653;28;20414;-77
2023/07/07 00:19:51;;;;;;;19.05;13.50;;;22.50;99.90;;;;;;5085243;28;20998;-77
2023/07/07 00:22:17;;;;;;;18.98;12.68;;;22.40;99.90;;;;;;5080961;28;21480;-76
2023/07/07 00:24:43;;;;;;;20.33;11.70;;;22.40;99.90;;;;;;5084127;27;20414;-77
2023/07/07 00:27:09;;;;;;;16.60;11.68;;;22.30;99.90;;;;;;5076002;28;21339;-76
2023/07/07 00:29:36;;;;;;;18.92;10.75;;;22.30;99.90;;;;;;5076067;28;20755;-76
2023/07/07 00:32:02;;;;;;;17.23;10.55;;;22.20;99.90;;;;;;5064999;28;20758;-76
2023/07/07 00:34:29;;;;;;;16.80;10.13;;;22.20;99.90;;;;;;5078378;28;20890;-77
2023/07/07 00:36:55;;;;;;;16.65;9.90;;;22.20;99.90;;;;;;5066522;28;20402;-76
2023/07/07 00:39:22;;;;;;;18.17;10.70;;;22.20;99.90;;;;;;5073746;28;21154;-77
2023/07/07 00:41:48;;;;;;;13.70;9.43;;;22.10;99.90;;;;;;5081088;28;20512;-75
2023/07/07 00:44:15;;;;;;;16.48;9.40;;;22.10;99.90;;;;;;5082596;28;20450;-75
2023/07/07 00:46:41;;;;;;;13.82;9.00;;;22.10;99.90;;;;;;5081497;28;20772;-75
2023/07/07 00:49:18;;;;;;;15.13;9.38;;;22.10;99.90;;;;;;5078285;28;20455;-75
2023/07/07 00:51:56;;;;;;;16.42;9.02;;;22.00;99.90;;;;;;5080945;28;20492;-75
2023/07/07 00:54:34;;;;;;;15.57;9.30;;;22.00;99.90;;;;;;5109519;27;20446;-75
2023/07/07 00:57:04;;;;;;;18.70;9.13;;;21.90;99.90;;;;;;5078113;28;20436;-75
2023/07/07 00:59:37;;;;;;;16.50;9.60;;;22.00;99.90;;;;;;5109699;27;21181;-75
2023/07/07 01:02:12;;;;;;;14.80;9.35;;;22.00;99.90;;;;;;5061576;28;20440;-75
2023/07/07 01:04:48;;;;;;;15.02;9.27;;;22.10;99.90;;;;;;5109756;27;20411;-75
2023/07/07 01:07:23;;;;;;;16.25;9.20;;;22.10;99.90;;;;;;5065866;28;20456;-75
2023/07/07 01:09:51;;;;;;;18.52;9.15;;;22.10;99.90;;;;;;5076306;28;20409;-75
2023/07/07 01:12:18;;;;;;;15.07;9.00;;;22.10;99.90;;;;;;5085430;28;20455;-74
2023/07/07 01:14:48;;;;;;;16.25;8.98;;;22.00;99.90;;;;;;5059752;28;20412;-75
2023/07/07 01:17:28;;;;;;;19.35;9.20;;;22.10;99.90;;;;;;5077837;28;20435;-75
2023/07/07 01:20:12;;;;;;;21.40;9.98;;;22.00;99.90;;;;;;5076448;28;20463;-75
2023/07/07 01:23:36;;;;;;;14.02;8.25;;;22.00;99.90;;;;;;5080931;28;20767;-76
2023/07/07 01:26:51;;;;;;;14.43;8.55;;;22.10;99.90;;;;;;5039986;28;20503;-75
2023/07/07 01:30:09;;;;;;;18.90;8.65;;;22.10;99.90;;;;;;5064501;28;20420;-75
2023/07/07 01:32:38;;;;;;;17.92;9.13;;;22.10;99.90;;;;;;5064999;28;20961;-76
2023/07/07 01:35:14;;;;;;;18.95;9.07;;;22.10;99.90;;;;;;5077941;28;20405;-76
2023/07/07 01:37:51;;;;;;;16.48;8.45;;;22.00;99.90;;;;;;5093624;28;20874;-75
2023/07/07 01:40:17;;;;;;;14.50;8.48;;;22.00;99.90;;;;;;5076828;28;20409;-75
2023/07/07 01:43:00;;;;;;;18.17;9.13;;;22.10;99.90;;;;;;5061670;28;20404;-75
2023/07/07 01:45:44;;;;;;;16.00;8.95;;;22.10;99.90;;;;;;5067996;28;20519;-75
2023/07/07 01:48:25;;;;;;;16.98;9.30;;;22.10;99.90;;;;;;5071864;28;20509;-75
2023/07/07 01:50:53;;;;;;;18.02;9.20;;;22.10;99.90;;;;;;5102056;27;20476;-75
2023/07/07 01:53:26;;;;;;;18.63;9.82;;;22.10;99.90;;;;;;5106576;27;20412;-75
2023/07/07 01:55:57;;;;;;;16.27;9.15;;;22.10;99.90;;;;;;5098307;27;20781;-75
2023/07/07 01:58:28;;;;;;;18.93;9.20;;;22.10;99.90;;;;;;5071429;28;20448;-75
2023/07/07 02:00:57;;;;;;;17.23;9.80;;;22.10;99.90;;;;;;5071371;28;20412;-76
2023/07/07 02:03:23;;;;;;;19.67;9.68;;;22.10;99.90;;;;;;5074963;28;21590;-77
2023/07/07 02:05:50;;;;;;;18.20;9.70;;;22.10;99.90;;;;;;5098197;28;20487;-77
2023/07/07 02:08:16;;;;;;;16.85;9.68;;;22.00;99.90;;;;;;5072790;28;20415;-77
2023/07/07 02:10:42;;;;;;;13.77;9.30;;;22.10;99.90;;;;;;5081386;28;20971;-77
2023/07/07 02:13:08;;;;;;;21.80;9.88;;;22.00;99.90;;;;;;5072271;28;20830;-76
2023/07/07 02:15:35;;;;;;;18.43;9.63;;;22.10;99.90;;;;;;5074283;28;20497;-76
2023/07/07 02:18:03;;;;;;;20.00;9.65;;;22.10;99.90;;;;;;5070015;28;20438;-75
2023/07/07 02:20:30;;;;;;;17.48;9.45;;;22.10;99.90;;;;;;5104200;27;20832;-76
2023/07/07 02:22:57;;;;;;;19.00;9.85;;;22.10;99.90;;;;;;5072491;28;20585;-76
2023/07/07 02:25:23;;;;;;;22.70;9.95;;;22.10;99.90;;;;;;5071906;28;21118;-76
2023/07/07 02:27:50;;;;;;;18.10;9.77;;;22.10;99.90;;;;;;5072523;28;20397;-76
2023/07/07 02:30:16;;;;;;;17.25;9.60;;;22.10;99.90;;;;;;5076403;28;21076;-76
2023/07/07 02:32:42;;;;;;;21.10;10.13;;;22.10;99.90;;;;;;5103085;27;20751;-76
2023/07/07 02:35:09;;;;;;;19.23;9.73;;;22.10;99.90;;;;;;5072093;28;20410;-75
2023/07/07 02:37:35;;;;;;;17.92;10.77;;;22.10;99.90;;;;;;5069685;28;20443;-75
2023/07/07 02:40:01;;;;;;;16.60;10.20;;;22.20;99.90;;;;;;5074489;28;20410;-75
2023/07/07 02:42:28;;;;;;;20.20;9.90;;;22.20;99.90;;;;;;5078993;28;20415;-76
2023/07/07 02:44:54;;;;;;;17.40;9.53;;;22.20;99.90;;;;;;5070840;28;20439;-76
2023/07/07 02:47:21;;;;;;;18.30;9.93;;;22.20;99.90;;;;;;5076249;28;20402;-76
2023/07/07 02:49:47;;;;;;;15.75;9.68;;;22.30;99.90;;;;;;5076590;28;21173;-76
2023/07/07 02:52:13;;;;;;;16.13;9.43;;;22.30;99.90;;;;;;5072393;28;20503;-75
2023/07/07 02:54:39;;;;;;;19.73;9.95;;;22.30;99.90;;;;;;5062616;28;20559;-76
2023/07/07 02:57:06;;;;;;;17.90;9.43;;;22.30;99.90;;;;;;5074224;28;22067;-76
2023/07/07 02:59:32;;;;;;;17.30;9.45;;;22.30;99.90;;;;;;5078450;28;20406;-76
2023/07/07 03:01:58;;;;;;;17.33;9.65;;;22.30;99.90;;;;;;5078150;28;20420;-76
2023/07/07 03:04:26;;;;;;;18.42;9.43;;;22.30;99.90;;;;;;5072696;28;20422;-76
2023/07/07 03:06:53;;;;;;;15.13;9.00;;;22.30;99.90;;;;;;5083054;28;20401;-76
2023/07/07 03:09:20;;;;;;;20.33;9.35;;;22.30;99.90;;;;;;5076106;28;20786;-75
2023/07/07 03:11:46;;;;;;;18.80;9.48;;;22.30;99.90;;;;;;5088386;27;20443;-75
2023/07/07 03:14:18;;;;;;;20.40;9.77;;;22.30;99.90;;;;;;5069337;28;20819;-75
2023/07/07 03:16:51;;;;;;;15.15;8.90;;;22.20;99.90;;;;;;5072585;28;20411;-76
2023/07/07 03:19:19;;;;;;;21.63;9.60;;;22.20;99.90;;;;;;5070767;28;20416;-75
2023/07/07 03:21:46;;;;;;;21.40;9.47;;;22.30;99.90;;;;;;5072957;28;20428;-75
2023/07/07 03:24:15;;;;;;;15.13;8.73;;;22.30;99.90;;;;;;5065215;28;20455;-76
2023/07/07 03:26:42;;;;;;;13.20;8.35;;;22.30;99.90;;;;;;5074528;28;20411;-76
2023/07/07 03:29:08;;;;;;;16.25;8.88;;;22.30;99.90;;;;;;5081821;28;20423;-76
2023/07/07 03:31:34;;;;;;;16.75;8.52;;;22.30;99.90;;;;;;5058988;28;20406;-77
2023/07/07 03:34:04;;;;;;;16.58;8.35;;;22.20;99.90;;;;;;5071044;28;20488;-77
2023/07/07 03:36:34;;;;;;;17.88;9.20;;;22.20;99.90;;;;;;5071515;28;20447;-77
2023/07/07 03:39:01;;;;;;;18.20;9.32;;;22.20;99.90;;;;;;5074223;28;20404;-76
2023/07/07 03:41:29;;;;;;;16.00;9.75;;;22.10;99.90;;;;;;5074867;28;21035;-77
2023/07/07 03:43:56;;;;;;;16.50;9.43;;;22.20;99.90;;;;;;5100277;27;20515;-77
2023/07/07 03:46:26;;;;;;;15.18;9.38;;;22.10;99.90;;;;;;5078912;28;21004;-76
2023/07/07 03:48:53;;;;;;;18.00;9.88;;;22.20;99.90;;;;;;5081067;28;25627;-76
2023/07/07 03:51:22;;;;;;;16.77;10.13;;;22.30;99.90;;;;;;5083087;28;20395;-76
2023/07/07 03:53:50;;;;;;;17.13;9.85;;;22.30;99.90;;;;;;5082434;28;20410;-76
2023/07/07 03:56:18;;;;;;;15.05;10.05;;;22.40;99.90;;;;;;5077270;28;20480;-77
2023/07/07 03:58:45;;;;;;;18.95;9.88;;;22.40;99.90;;;;;;5085460;28;20918;-76
2023/07/07 04:01:15;;;;;;;16.27;10.10;;;22.40;99.90;;;;;;5064050;28;20417;-78
2023/07/07 04:03:45;;;;;;;14.95;9.75;;;22.40;99.90;;;;;;5084498;28;20412;-78
2023/07/07 04:06:12;;;;;;;16.50;10.15;;;22.50;99.90;;;;;;5076805;28;20401;-78
2023/07/07 04:08:38;;;;;;;17.98;10.40;;;22.50;99.90;;;;;;5064973;28;20435;-78
2023/07/07 04:11:20;;;;;;;16.60;9.90;;;22.50;99.90;;;;;;5087820;28;20427;-78
2023/07/07 04:13:50;;;;;;;15.40;10.43;;;22.50;99.90;;;;;;5094535;28;20495;-78
2023/07/07 04:16:27;;;;;;;19.08;10.73;;;22.50;99.90;;;;;;5074714;28;20508;-76
2023/07/07 04:18:55;;;;;;;14.75;10.30;;;22.50;99.90;;;;;;5080467;28;20956;-76
2023/07/07 04:21:26;;;;;;;15.27;10.47;;;22.60;99.90;;;;;;5077796;28;20627;-76
2023/07/07 04:23:55;;;;;;;20.10;10.60;;;22.60;99.90;;;;;;5079714;28;20430;-76
2023/07/07 04:26:24;;;;;;;14.60;10.00;;;22.60;99.90;;;;;;5060719;28;20508;-76
2023/07/07 04:28:53;;;;;;;14.98;10.50;;;22.70;99.90;;;;;;5077600;28;20830;-77
2023/07/07 04:31:23;;;;;;;15.20;10.52;;;22.70;99.90;;;;;;5077815;28;20589;-76
2023/07/07 04:33:50;;;;;;;16.27;10.77;;;22.80;99.90;;;;;;5086326;28;20451;-76
2023/07/07 04:36:17;;;;;;;15.20;10.38;;;22.80;99.90;;;;;;5082805;28;20506;-76
2023/07/07 04:38:44;;;;;;;14.80;10.10;;;22.80;99.90;;;;;;5076241;28;21271;-76
2023/07/07 04:41:26;;;;;;;15.18;9.90;;;22.90;99.90;;;;;;5075221;28;20515;-76
2023/07/07 04:43:59;;;;;;;16.25;10.20;;;23.00;99.90;;;;;;5079703;28;20812;-77
2023/07/07 04:46:33;;;;;;;15.65;10.00;;;23.00;99.90;;;;;;5079228;28;20451;-76
2023/07/07 04:49:06;;;;;;;16.90;9.82;;;23.10;99.90;;;;;;5080622;28;20414;-77
2023/07/07 04:51:35;;;;;;;14.27;9.52;;;23.10;99.90;;;;;;5080202;28;20773;-77
2023/07/07 04:54:03;;;;;;;16.73;9.73;;;23.10;99.90;;;;;;5073204;28;20919;-76
2023/07/07 04:56:29;;;;;;;16.25;9.73;;;23.10;99.90;;;;;;5088660;27;20415;-75
2023/07/07 04:58:57;;;;;;;15.45;9.82;;;23.20;99.90;;;;;;5062873;28;22320;-75
2023/07/07 05:01:27;;;;;;;14.65;9.85;;;23.20;99.90;;;;;;5076527;28;20491;-76
2023/07/07 05:03:59;;;;;;;15.57;9.77;;;23.30;99.90;;;;;;5074204;28;20430;-77
2023/07/07 05:06:30;;;;;;;18.17;10.48;;;23.30;99.90;;;;;;5111425;27;20986;-77
2023/07/07 05:08:56;;;;;;;17.80;10.18;;;23.40;99.90;;;;;;5076514;28;20414;-78
2023/07/07 05:11:29;;;;;;;18.67;10.60;;;23.40;99.90;;;;;;5073205;28;20406;-78
2023/07/07 05:13:55;;;;;;;15.87;10.70;;;23.50;99.90;;;;;;5074160;28;20468;-77
2023/07/07 05:16:25;;;;;;;16.40;10.73;;;23.60;99.90;;;;;;5080255;28;20428;-77
2023/07/07 05:18:52;;;;;;;17.85;10.63;;;23.60;99.90;;;;;;5083074;28;20453;-77
2023/07/07 05:21:22;;;;;;;17.38;10.80;;;23.70;99.90;;;;;;5076658;28;20454;-77
2023/07/07 05:23:51;;;;;;;16.35;10.70;;;23.80;99.90;;;;;;5074129;28;20444;-77
2023/07/07 05:26:27;;;;;;;17.77;10.68;;;23.80;99.90;;;;;;5079015;28;20504;-76
2023/07/07 05:28:54;;;;;;;18.85;10.80;;;23.80;99.90;;;;;;5074090;28;20450;-76
2023/07/07 05:31:21;;;;;;;16.58;10.98;;;24.00;99.90;;;;;;5077149;28;20444;-77
2023/07/07 05:33:47;;;;;;;17.83;11.03;;;24.00;99.90;;;;;;5061570;28;20411;-77
2023/07/07 05:36:13;;;;;;;18.92;10.73;;;24.10;99.90;;;;;;5073367;28;20422;-77
2023/07/07 05:38:41;;;;;;;16.77;10.50;;;24.10;99.90;;;;;;5079653;28;20780;-77
2023/07/07 05:41:10;;;;;;;16.85;10.88;;;24.30;99.90;;;;;;5083842;28;20850;-77
2023/07/07 05:43:36;;;;;;;19.85;10.90;;;24.30;99.90;;;;;;5075966;28;20415;-77
2023/07/07 05:46:11;;;;;;;17.60;11.00;;;24.30;99.90;;;;;;5060304;28;20413;-77
2023/07/07 05:48:38;;;;;;;17.15;10.98;;;24.40;99.90;;;;;;5075741;28;20423;-77
2023/07/07 05:51:08;;;;;;;16.23;10.53;;;24.40;99.90;;;;;;5066167;28;20431;-77
2023/07/07 05:53:35;;;;;;;17.15;10.32;;;24.40;99.90;;;;;;5075574;28;20415;-77
2023/07/07 05:56:19;;;;;;;16.20;10.67;;;24.50;99.90;;;;;;5072938;28;20418;-77
2023/07/07 05:58:45;;;;;;;15.95;10.20;;;24.60;99.90;;;;;;5073963;28;20424;-76
2023/07/07 06:01:13;;;;;;;18.92;10.93;;;24.70;99.90;;;;;;5072730;28;20411;-76
2023/07/07 06:03:40;;;;;;;19.80;10.57;;;24.70;99.90;;;;;;5073357;28;20499;-77
2023/07/07 06:06:07;;;;;;;17.40;10.65;;;24.80;99.90;;;;;;5079989;28;20408;-76
2023/07/07 06:08:34;;;;;;;16.00;11.15;;;24.90;99.90;;;;;;5080344;28;20411;-77
2023/07/07 06:11:01;;;;;;;18.58;12.00;;;24.90;99.90;;;;;;5076810;28;20805;-77
2023/07/07 06:13:28;;;;;;;23.38;11.57;;;24.90;99.90;;;;;;5077909;28;20405;-77
2023/07/07 06:15:58;;;;;;;17.47;10.87;;;24.90;99.90;;;;;;5074495;28;20410;-77
2023/07/07 06:18:25;;;;;;;17.73;11.00;;;24.90;99.90;;;;;;5082117;28;20408;-77
2023/07/07 06:21:00;;;;;;;19.30;11.43;;;25.00;99.90;;;;;;5069440;28;20432;-76
2023/07/07 06:23:30;;;;;;;19.83;10.98;;;25.10;99.90;;;;;;5076867;28;21213;-77
2023/07/07 06:25:57;;;;;;;18.70;11.15;;;25.10;99.90;;;;;;5077979;28;20933;-76
2023/07/07 06:28:23;;;;;;;22.52;10.90;;;25.20;99.90;;;;;;5076197;28;20422;-77
2023/07/07 06:30:51;;;;;;;16.30;9.90;;;25.20;99.90;;;;;;5067050;28;20458;-76
2023/07/07 06:33:19;;;;;;;18.42;10.85;;;25.30;99.90;;;;;;5076930;28;20957;-76
2023/07/07 06:35:45;;;;;;;17.55;10.75;;;25.40;99.90;;;;;;5081710;28;20473;-76
2023/07/07 06:38:12;;;;;;;19.63;11.20;;;25.40;99.90;;;;;;5077936;28;20410;-75
2023/07/07 06:40:38;;;;;;;18.38;10.68;;;25.50;99.90;;;;;;5074404;28;20785;-76
2023/07/07 06:43:04;;;;;;;16.27;10.30;;;25.50;99.90;;;;;;5094128;27;20453;-76
2023/07/07 06:45:34;;;;;;;15.90;10.77;;;25.60;99.90;;;;;;5069139;28;20486;-75
2023/07/07 06:48:02;;;;;;;16.52;9.80;;;25.60;99.90;;;;;;5075461;28;20450;-76
2023/07/07 06:50:32;;;;;;;16.92;10.48;;;25.70;99.90;;;;;;5080757;28;20407;-76
2023/07/07 06:52:58;;;;;;;19.25;10.25;;;25.90;99.90;;;;;;5061579;28;21097;-76
2023/07/07 06:55:25;;;;;;;15.77;10.20;;;26.00;99.90;;;;;;5078126;28;20955;-76
2023/07/07 06:57:51;;;;;;;14.75;10.23;;;26.10;99.90;;;;;;5081737;28;20835;-76
2023/07/07 07:00:18;;;;;;;19.52;10.80;;;26.20;99.90;;;;;;5073479;28;20452;-74
2023/07/07 07:02:46;;;;;;;20.08;10.80;;;26.30;99.90;;;;;;5074866;28;20917;-76
2023/07/07 07:05:12;;;;;;;17.95;10.77;;;26.30;99.90;;;;;;5087216;27;20418;-74
2023/07/07 07:07:38;;;;;;;14.38;9.95;;;26.40;99.90;;;;;;5073347;28;20443;-76
2023/07/07 07:10:06;;;;;;;17.38;9.85;;;26.50;99.90;;;;;;5079561;28;20409;-75
2023/07/07 07:12:34;;;;;;;19.63;10.15;;;26.60;99.90;;;;;;5079872;28;20409;-74
2023/07/07 07:15:00;;;;;;;16.00;9.20;;;26.70;99.90;;;;;;5079479;28;20419;-74
2023/07/07 07:17:26;;;;;;;13.63;9.68;;;26.70;99.90;;;;;;5086649;28;20443;-74
2023/07/07 07:19:53;;;;;;;15.02;8.75;;;26.80;99.90;;;;;;5074698;28;20417;-76
2023/07/07 07:22:20;;;;;;;14.95;8.63;;;26.90;99.90;;;;;;5081883;28;20429;-77
2023/07/07 07:24:46;;;;;;;15.20;9.10;;;27.10;99.90;;;;;;5095423;28;20776;-75
2023/07/07 07:27:12;;;;;;;13.52;8.68;;;27.20;99.90;;;;;;5079493;28;20413;-77
2023/07/07 07:29:42;;;;;;;12.95;9.13;;;27.30;99.90;;;;;;5075249;28;20510;-77
2023/07/07 07:32:09;;;;;;;16.08;9.75;;;27.40;99.90;;;;;;5076602;28;21005;-76
2023/07/07 07:34:35;;;;;;;13.60;9.52;;;27.50;99.90;;;;;;5084925;28;20404;-77
2023/07/07 07:37:04;;;;;;;25.30;9.10;;;27.60;99.90;;;;;;5083590;28;20411;-78
2023/07/07 07:39:30;;;;;;;19.50;8.93;;;27.60;99.90;;;;;;5079555;28;20535;-75
2023/07/07 07:41:57;;;;;;;15.45;8.90;;;27.80;99.90;;;;;;5078250;28;21539;-74
2023/07/07 07:44:25;;;;;;;15.43;9.55;;;28.00;99.90;;;;;;5077956;28;20447;-75
2023/07/07 07:46:55;;;;;;;17.13;8.70;;;28.10;99.90;;;;;;5103604;28;21130;-74
2023/07/07 07:49:27;;;;;;;13.67;9.03;;;28.20;99.90;;;;;;5071262;28;20447;-75
2023/07/07 07:51:54;;;;;;;15.38;8.88;;;28.30;99.90;;;;;;5087187;27;20400;-76
2023/07/07 07:54:23;;;;;;;11.77;7.53;;;28.40;99.90;;;;;;5078397;28;20441;-76
2023/07/07 07:56:50;;;;;;;12.77;7.85;;;28.40;99.90;;;;;;5076259;28;20829;-76
2023/07/07 07:59:16;;;;;;;13.48;8.50;;;28.50;99.90;;;;;;5112258;27;20413;-76
2023/07/07 08:01:44;;;;;;;11.87;7.77;;;28.50;99.90;;;;;;5064239;28;20409;-76
2023/07/07 08:04:10;;;;;;;11.35;7.32;;;28.70;99.90;;;;;;5073583;28;20940;-76
2023/07/07 08:06:37;;;;;;;11.45;7.00;;;28.80;99.90;;;;;;5099634;27;21033;-76
2023/07/07 08:09:03;;;;;;;14.00;7.80;;;29.00;99.90;;;;;;5063806;28;20410;-75
2023/07/07 08:11:42;;;;;;;12.95;7.10;;;29.10;99.90;;;;;;5107175;27;20784;-77
2023/07/07 08:14:14;;;;;;;11.65;7.38;;;29.30;99.90;;;;;;5074569;28;20414;-77
2023/07/07 08:16:40;;;;;;;15.10;8.30;;;29.40;99.90;;;;;;5093161;28;20421;-76
2023/07/07 08:19:08;;;;;;;12.63;8.27;;;29.60;99.90;;;;;;5072884;28;20412;-77
2023/07/07 08:21:35;;;;;;;17.52;8.73;;;29.80;99.90;;;;;;5080386;28;20458;-75
2023/07/07 08:24:04;;;;;;;13.27;8.13;;;29.90;99.90;;;;;;5058558;28;20479;-76
2023/07/07 08:26:30;;;;;;;11.48;7.60;;;30.00;99.90;;;;;;5073230;28;20898;-76
2023/07/07 08:28:57;;;;;;;11.75;6.93;;;30.10;99.90;;;;;;5066788;28;20411;-75
2023/07/07 08:31:23;;;;;;;12.00;7.30;;;30.20;99.90;;;;;;5067658;28;20429;-76
2023/07/07 08:33:51;;;;;;;13.67;7.60;;;30.30;99.90;;;;;;5071720;28;21181;-76
2023/07/07 08:36:17;;;;;;;9.52;7.20;;;30.50;99.90;;;;;;5074632;28;21442;-75
2023/07/07 08:38:44;;;;;;;11.70;7.10;;;30.60;99.90;;;;;;5078311;28;20419;-76
2023/07/07 08:41:10;;;;;;;12.93;7.25;;;30.70;99.90;;;;;;5096062;28;20406;-75
2023/07/07 08:43:37;;;;;;;14.80;7.53;;;30.70;99.90;;;;;;5081102;28;20847;-75
2023/07/07 08:46:29;;;;;;;15.95;7.75;;;30.90;99.90;;;;;;5079089;28;20908;-76
2023/07/07 08:49:17;;;;;;;12.98;8.13;;;31.00;99.90;;;;;;5081103;28;20497;-75
2023/07/07 08:52:12;;;;;;;16.50;9.07;;;31.10;99.90;;;;;;5073511;28;20408;-73
2023/07/07 08:55:02;;;;;;;18.75;8.68;;;31.30;99.90;;;;;;5093187;28;20417;-72
2023/07/07 08:57:41;;;;;;;16.10;8.77;;;31.40;99.90;;;;;;5103992;27;20450;-75
2023/07/07 09:00:55;;;;;;;13.52;9.10;;;31.40;99.90;;;;;;5073477;28;20447;-72
2023/07/07 09:04:30;;;;;;;19.90;9.50;;;31.40;99.90;;;;;;5064363;28;20554;-73
2023/07/07 09:07:18;;;;;;;17.40;9.10;;;31.40;99.90;;;;;;5049947;28;20441;-73
2023/07/07 09:10:06;;;;;;;18.92;9.27;;;31.60;99.90;;;;;;5079161;28;20742;-73
2023/07/07 09:12:48;;;;;;;14.68;9.00;;;31.80;99.90;;;;;;5097871;27;21178;-73
2023/07/07 09:15:22;;;;;;;14.07;8.98;;;31.90;99.90;;;;;;5076966;28;20772;-73
2023/07/07 09:17:59;;;;;;;19.33;9.85;;;32.00;99.90;;;;;;5085032;27;20455;-74
2023/07/07 09:20:30;;;;;;;15.38;8.88;;;32.00;99.90;;;;;;5075829;28;20414;-75
2023/07/07 09:23:07;;;;;;;17.33;9.20;;;32.10;99.90;;;;;;5106158;27;20400;-75
2023/07/07 09:25:43;;;;;;;21.13;8.82;;;32.20;99.90;;;;;;5077080;28;20442;-73
2023/07/07 09:28:14;;;;;;;15.95;9.23;;;32.20;99.90;;;;;;5113103;27;20419;-75
2023/07/07 09:31:25;;;;;;;14.00;9.32;;;32.30;99.90;;;;;;5055463;28;20438;-73
2023/07/07 09:33:54;;;;;;;18.23;8.75;;;32.40;99.90;;;;;;5071451;28;20408;-73
2023/07/07 09:36:36;;;;;;;16.08;8.60;;;32.50;99.90;;;;;;5063365;28;20420;-73
2023/07/07 09:39:38;;;;;;;15.00;7.60;;;32.50;99.90;;;;;;5071496;28;21093;-73
2023/07/07 09:42:39;;;;;;;16.33;8.45;;;32.40;99.90;;;;;;5105640;27;20464;-75
2023/07/07 09:45:36;;;;;;;15.98;8.95;;;32.60;99.90;;;;;;5072293;28;21253;-73
2023/07/07 09:48:23;;;;;;;14.20;9.27;;;32.60;99.90;;;;;;5074984;28;20497;-73
2023/07/07 09:51:18;;;;;;;17.35;9.15;;;32.70;99.90;;;;;;5067624;28;20418;-74
2023/07/07 09:53:46;;;;;;;15.25;8.63;;;32.90;99.90;;;;;;5062027;28;20417;-73
2023/07/07 09:56:23;;;;;;;14.65;8.20;;;33.10;99.90;;;;;;5067475;28;20465;-73
2023/07/07 09:59:06;;;;;;;14.97;7.80;;;33.10;99.90;;;;;;5058423;28;20413;-73
2023/07/07 10:01:42;;;;;;;14.50;8.15;;;33.30;99.90;;;;;;5076725;28;21083;-74
2023/07/07 10:04:16;;;;;;;12.35;7.80;;;33.10;99.90;;;;;;5086725;28;20504;-74
2023/07/07 10:06:56;;;;;;;15.50;8.35;;;33.30;99.90;;;;;;5070423;28;20508;-74
2023/07/07 10:09:23;;;;;;;15.90;7.70;;;33.20;99.90;;;;;;5066064;28;20403;-74
2023/07/07 10:11:51;;;;;;;17.23;7.60;;;33.30;99.90;;;;;;5068757;28;20544;-74
2023/07/07 10:14:17;;;;;;;16.40;7.97;;;33.20;99.90;;;;;;5062482;28;21065;-74
2023/07/07 10:16:55;;;;;;;16.30;8.18;;;33.00;99.90;;;;;;5082050;28;20408;-74
2023/07/07 10:19:24;;;;;;;13.93;7.90;;;33.00;99.90;;;;;;5076420;28;20417;-74
2023/07/07 10:21:52;;;;;;;19.50;8.90;;;33.10;99.90;;;;;;5097313;27;20541;-74
2023/07/07 10:24:18;;;;;;;16.33;8.57;;;33.10;99.90;;;;;;5069906;28;20431;-74
2023/07/07 10:26:47;;;;;;;18.20;8.57;;;33.00;99.90;;;;;;5072788;28;20447;-74
2023/07/07 10:29:31;;;;;;;13.32;8.50;;;32.90;99.90;;;;;;5075391;28;20513;-74
2023/07/07 10:31:57;;;;;;;18.77;8.75;;;33.10;99.90;;;;;;5080419;28;20471;-74
2023/07/07 10:34:31;;;;;;;15.73;9.18;;;33.00;99.90;;;;;;5072178;28;20453;-74
2023/07/07 10:36:59;;;;;;;16.13;9.65;;;32.80;99.90;;;;;;5069005;28;20414;-74
2023/07/07 10:39:31;;;;;;;13.95;9.02;;;32.80;99.90;;;;;;5076898;28;20826;-74
2023/07/07 10:41:58;;;;;;;18.95;9.77;;;32.70;99.90;;;;;;5106012;27;20502;-74
2023/07/07 10:44:27;;;;;;;15.35;9.80;;;32.70;99.90;;;;;;5079656;28;20767;-74
2023/07/07 10:46:54;;;;;;;15.82;9.25;;;32.70;99.90;;;;;;5072053;28;20406;-74
2023/07/07 10:49:26;;;;;;;16.40;10.13;;;32.60;99.90;;;;;;5075483;28;21478;-74
2023/07/07 10:52:09;;;;;;;16.65;9.55;;;32.30;99.90;;;;;;5074859;28;20919;-73
2023/07/07 10:54:58;;;;;;;16.17;9.83;;;32.20;99.90;;;;;;5071590;28;20413;-74
2023/07/07 10:57:48;;;;;;;16.58;9.20;;;32.10;99.90;;;;;;5102534;27;20487;-74
2023/07/07 11:01:10;;;;;;;16.85;8.55;;;32.10;99.90;;;;;;5073581;28;20427;-74
2023/07/07 11:04:00;;;;;;;15.55;8.50;;;32.10;99.90;;;;;;5062584;28;20407;-73
2023/07/07 11:06:39;;;;;;;16.07;8.57;;;32.20;99.90;;;;;;5069522;28;20425;-73
2023/07/07 11:09:37;;;;;;;13.45;8.30;;;32.00;99.90;;;;;;5057606;28;20419;-73
2023/07/07 11:12:22;;;;;;;16.38;8.23;;;31.90;99.90;;;;;;5075824;28;20418;-73
2023/07/07 11:15:18;;;;;;;13.88;8.77;;;31.80;99.90;;;;;;5073564;28;20411;-73
2023/07/07 11:18:21;;;;;;;18.08;8.57;;;31.80;99.90;;;;;;5090269;28;20448;-73
2023/07/07 11:21:27;;;;;;;13.77;8.25;;;31.70;99.90;;;;;;5094562;27;20486;-72
2023/07/07 11:24:43;;;;;;;15.60;7.75;;;31.70;99.90;;;;;;5073743;28;20409;-72
2023/07/07 11:27:28;;;;;;;15.25;7.78;;;31.70;99.90;;;;;;5052593;28;20989;-72
2023/07/07 11:30:23;;;;;;;13.43;8.33;;;31.60;99.90;;;;;;5036740;28;20404;-73
2023/07/07 11:33:21;;;;;;;17.55;8.25;;;31.60;99.90;;;;;;5052568;28;20401;-73
2023/07/07 11:36:21;;;;;;;14.70;8.23;;;31.60;99.90;;;;;;5070096;28;20413;-73
2023/07/07 11:39:03;;;;;;;13.65;8.23;;;31.60;99.90;;;;;;5051428;28;20419;-74
2023/07/07 11:42:05;;;;;;;13.40;8.18;;;31.70;99.90;;;;;;5068943;28;20929;-74
2023/07/07 11:45:08;;;;;;;13.18;7.40;;;31.60;99.90;;;;;;5069881;28;20422;-74
2023/07/07 11:48:13;;;;;;;16.17;8.30;;;31.50;99.90;;;;;;5046765;28;20470;-74
2023/07/07 11:50:56;;;;;;;12.40;8.35;;;31.50;99.90;;;;;;5059021;28;21247;-74
2023/07/07 11:53:54;;;;;;;14.43;8.07;;;31.50;99.90;;;;;;5071742;28;20404;-74
2023/07/07 11:56:50;;;;;;;14.38;8.07;;;31.40;99.90;;;;;;5070888;28;20437;-74
2023/07/07 11:59:37;;;;;;;14.23;8.50;;;31.40;99.90;;;;;;5077228;28;21283;-71
2023/07/07 12:02:29;;;;;;;12.23;8.00;;;31.40;99.90;;;;;;5074938;28;20414;-71
2023/07/07 12:04:59;;;;;;;17.40;10.30;;;31.40;99.90;;;;;;5071668;28;20414;-71
2023/07/07 12:07:47;;;;;;;13.55;8.38;;;31.40;99.90;;;;;;5072806;28;20946;-71
2023/07/07 12:10:27;;;;;;;13.80;9.55;;;31.40;99.90;;;;;;5100780;27;20411;-71
2023/07/07 12:13:16;;;;;;;17.35;9.15;;;31.20;99.90;;;;;;5078680;28;20411;-71
2023/07/07 12:15:54;;;;;;;17.17;10.00;;;31.30;99.90;;;;;;5069617;28;20420;-71
2023/07/07 12:18:36;;;;;;;15.30;9.30;;;31.30;99.90;;;;;;5079140;28;20643;-71
2023/07/07 12:21:17;;;;;;;18.67;9.38;;;31.40;99.90;;;;;;5065719;28;21066;-72
2023/07/07 12:24:16;;;;;;;21.23;9.90;;;31.40;99.90;;;;;;5078273;28;20548;-71
2023/07/07 12:26:54;;;;;;;18.48;10.65;;;31.30;99.90;;;;;;5091920;27;20402;-71
2023/07/07 12:29:21;;;;;;;17.55;9.60;;;31.20;99.90;;;;;;5072465;28;20931;-74
2023/07/07 12:31:49;;;;;;;17.48;9.07;;;31.20;99.90;;;;;;5100376;27;20407;-74
2023/07/07 12:34:36;;;;;;;19.33;9.47;;;31.20;99.90;;;;;;5077623;28;20424;-73
2023/07/07 12:37:23;;;;;;;17.17;9.20;;;31.20;99.90;;;;;;5091397;27;20502;-71
2023/07/07 12:40:08;;;;;;;19.70;8.77;;;31.00;99.90;;;;;;5078922;28;20423;-71
2023/07/07 12:42:36;;;;;;;19.13;8.75;;;31.00;99.90;;;;;;5082336;28;20411;-71
2023/07/07 12:45:39;;;;;;;15.45;9.20;;;31.10;99.90;;;;;;5096373;27;20534;-71
2023/07/07 12:48:28;;;;;;;21.38;9.77;;;31.10;99.90;;;;;;5078159;28;20449;-71
2023/07/07 12:51:03;;;;;;;20.23;10.00;;;31.10;99.90;;;;;;5075985;28;20771;-71
2023/07/07 12:53:41;;;;;;;19.77;10.75;;;31.10;99.90;;;;;;5075120;28;20455;-72
2023/07/07 12:56:07;;;;;;;16.88;9.75;;;31.00;99.90;;;;;;5070257;28;20467;-71
2023/07/07 12:58:41;;;;;;;18.63;9.38;;;30.80;99.90;;;;;;5080258;28;20409;-71
2023/07/07 13:02:03;;;;;;;18.02;10.20;;;30.90;99.90;;;;;;5078489;28;20501;-71
2023/07/07 13:04:57;;;;;;;15.98;9.45;;;31.00;99.90;;;;;;5063850;28;20422;-71
2023/07/07 13:07:34;;;;;;;18.27;8.43;;;31.00;99.90;;;;;;5075021;28;20899;-71